Time;durP1;ratioP1;P1;durP2;ratioP2;P2;SDS_P1;SDS_P2;PMS_P1;PMS_P2;Temp;Humidity;BMP_temperature;BMP_pressure;BME280_temperature;BME280_humidity;BME280_pressure;Samples;Min_cycle;Max_cycle;Signal;HPM_P1;HPM_P2
2023/04/13 00:00:59;;;;;;;;;;;;;;;;;;5062299;28;19920;-61
2023/04/13 00:03:26;;;;;;;;;;;;;;;;;;5069486;28;19919;-61
2023/04/13 00:05:52;;;;;;;;;;;;;;;;;;5070266;28;19981;-61
2023/04/13 00:08:21;;;;;;;;;;;;;;;;;;5079080;28;20372;-61
2023/04/13 00:10:47;;;;;;;;;;;;;;;;;;5065260;28;19966;-61
2023/04/13 00:13:13;;;;;;;;;;;;;;;;;;5074530;28;19960;-61
2023/04/13 00:15:39;;;;;;;;;;;;;;;;;;5072692;28;19967;-61
2023/04/13 00:18:05;;;;;;;;;;;;;;;;;;5062111;28;19928;-61
2023/04/13 00:20:31;;;;;;;;;;;;;;;;;;5061729;28;19931;-61
2023/04/13 00:22:57;;;;;;;;;;;;;;;;;;5088038;28;20350;-61
2023/04/13 00:25:23;;;;;;;;;;;;;;;;;;5068676;28;19924;-61
2023/04/13 00:27:49;;;;;;;;;;;;;;;;;;5069218;28;20322;-61
2023/04/13 00:30:15;;;;;;;;;;;;;;;;;;5068487;28;19924;-61
2023/04/13 00:32:44;;;;;;;;;;;;;;;;;;5055130;28;19990;-61
2023/04/13 00:35:10;;;;;;;;;;;;;;;;;;5085795;28;19964;-62
2023/04/13 00:37:37;;;;;;;;;;;;;;;;;;5062978;28;19974;-62
2023/04/13 00:40:04;;;;;;;;;;;;;;;;;;5078279;28;20011;-62
2023/04/13 00:42:30;;;;;;;;;;;;;;;;;;5078505;28;19928;-62
2023/04/13 00:44:56;;;;;;;;;;;;;;;;;;5088536;28;19924;-62
2023/04/13 00:47:25;;;;;;;;;;;;;;;;;;5077474;28;19920;-62
2023/04/13 00:49:51;;;;;;;;;;;;;;;;;;5082588;28;19927;-62
2023/04/13 00:52:17;;;;;;;;;;;;;;;;;;5084345;28;20007;-62
2023/04/13 00:54:43;;;;;;;;;;;;;;;;;;5086738;28;20006;-62
2023/04/13 00:57:09;;;;;;;;;;;;;;;;;;5086529;28;19988;-62
2023/04/13 00:59:35;;;;;;;;;;;;;;;;;;5061809;28;19925;-62
2023/04/13 01:02:04;;;;;;;;;;;;;;;;;;5084688;28;20003;-63
2023/04/13 01:04:29;;;;;;;;;;;;;;;;;;5087339;28;19932;-62
2023/04/13 01:06:55;;;;;;;;;;;;;;;;;;5063908;28;19978;-62
2023/04/13 01:09:21;;;;;;;;;;;;;;;;;;5087631;28;19928;-62
2023/04/13 01:11:47;;;;;;;;;;;;;;;;;;5073126;28;19927;-62
2023/04/13 01:14:13;;;;;;;;;;;;;;;;;;5093757;28;20392;-61
2023/04/13 01:16:39;;;;;;;;;;;;;;;;;;5080244;28;19927;-62
2023/04/13 01:19:05;;;;;;;;;;;;;;;;;;5069244;28;19924;-62
2023/04/13 01:21:31;;;;;;;;;;;;;;;;;;5071520;28;19920;-61
2023/04/13 01:23:57;;;;;;;;;;;;;;;;;;5082962;28;19924;-62
2023/04/13 01:26:24;;;;;;;;;;;;;;;;;;5050966;28;19920;-61
2023/04/13 01:28:50;;;;;;;;;;;;;;;;;;5056613;28;19955;-61
2023/04/13 01:31:16;;;;;;;;;;;;;;;;;;5092284;28;20293;-61
2023/04/13 01:33:42;;;;;;;;;;;;;;;;;;5080881;28;19924;-61
2023/04/13 01:36:08;;;;;;;;;;;;;;;;;;5086947;28;20421;-61
2023/04/13 01:38:34;;;;;;;;;;;;;;;;;;5074631;28;19928;-61
2023/04/13 01:41:01;;;;;;;;;;;;;;;;;;5078477;28;20297;-61
2023/04/13 01:43:27;;;;;;;;;;;;;;;;;;5089354;28;20022;-61
2023/04/13 01:45:53;;;;;;;;;;;;;;;;;;5090444;28;20388;-61
2023/04/13 01:48:20;;;;;;;;;;;;;;;;;;5089156;28;19928;-61
2023/04/13 01:50:46;;;;;;;;;;;;;;;;;;5086714;28;20014;-61
2023/04/13 01:53:11;;;;;;;;;;;;;;;;;;5086129;28;20020;-61
2023/04/13 01:55:38;;;;;;;;;;;;;;;;;;5077005;28;19959;-61
2023/04/13 01:58:04;;;;;;;;;;;;;;;;;;5081228;28;19920;-61
2023/04/13 02:00:36;;;;;;;;;;;;;;;;;;5080954;28;19925;-61
2023/04/13 02:03:03;;;;;;;;;;;;;;;;;;5069787;28;19950;-61
2023/04/13 02:05:29;;;;;;;;;;;;;;;;;;5072820;28;19932;-61
2023/04/13 02:07:55;;;;;;;;;;;;;;;;;;5085627;28;20618;-61
2023/04/13 02:10:21;;;;;;;;;;;;;;;;;;5082836;28;19980;-61
2023/04/13 02:12:47;;;;;;;;;;;;;;;;;;5079943;28;19920;-61
2023/04/13 02:15:13;;;;;;;;;;;;;;;;;;5073641;28;19963;-61
2023/04/13 02:17:40;;;;;;;;;;;;;;;;;;5089813;28;19986;-61
2023/04/13 02:20:10;;;;;;;;;;;;;;;;;;5080256;28;19927;-61
2023/04/13 02:22:36;;;;;;;;;;;;;;;;;;5079321;28;19924;-61
2023/04/13 02:25:01;;;;;;;;;;;;;;;;;;5073846;28;19993;-61
2023/04/13 02:27:27;;;;;;;;;;;;;;;;;;5071914;28;19924;-61
2023/04/13 02:29:54;;;;;;;;;;;;;;;;;;5059755;28;19967;-61
2023/04/13 02:32:20;;;;;;;;;;;;;;;;;;5073521;28;19956;-61
2023/04/13 02:34:46;;;;;;;;;;;;;;;;;;5083138;28;19982;-61
2023/04/13 02:37:12;;;;;;;;;;;;;;;;;;5092226;28;20049;-61
2023/04/13 02:39:38;;;;;;;;;;;;;;;;;;5074066;28;19947;-61
2023/04/13 02:42:04;;;;;;;;;;;;;;;;;;5082570;28;19924;-61
2023/04/13 02:44:30;;;;;;;;;;;;;;;;;;5056060;28;19925;-61
2023/04/13 02:46:56;;;;;;;;;;;;;;;;;;5066235;28;19932;-61
2023/04/13 02:49:21;;;;;;;;;;;;;;;;;;5084136;28;19936;-61
2023/04/13 02:51:47;;;;;;;;;;;;;;;;;;5084291;28;19924;-61
2023/04/13 02:54:14;;;;;;;;;;;;;;;;;;5087195;28;19927;-61
2023/04/13 02:56:40;;;;;;;;;;;;;;;;;;5086572;28;20356;-61
2023/04/13 02:59:06;;;;;;;;;;;;;;;;;;5061406;28;19944;-61
2023/04/13 03:01:32;;;;;;;;;;;;;;;;;;5073766;28;20370;-61
2023/04/13 03:03:58;;;;;;;;;;;;;;;;;;5084226;28;19928;-61
2023/04/13 03:06:24;;;;;;;;;;;;;;;;;;5075765;28;20425;-61
2023/04/13 03:08:50;;;;;;;;;;;;;;;;;;5091111;28;20034;-61
2023/04/13 03:11:16;;;;;;;;;;;;;;;;;;5088761;28;20009;-61
2023/04/13 03:13:42;;;;;;;;;;;;;;;;;;5080091;28;19924;-61
2023/04/13 03:16:10;;;;;;;;;;;;;;;;;;5072053;28;20312;-61
2023/04/13 03:18:37;;;;;;;;;;;;;;;;;;5080882;28;20010;-61
2023/04/13 03:21:04;;;;;;;;;;;;;;;;;;5073263;28;19925;-59
2023/04/13 03:23:30;;;;;;;;;;;;;;;;;;5081515;28;19935;-61
2023/04/13 03:25:56;;;;;;;;;;;;;;;;;;5061140;28;19928;-60
2023/04/13 03:28:22;;;;;;;;;;;;;;;;;;5060267;28;19947;-61
2023/04/13 03:30:48;;;;;;;;;;;;;;;;;;5075322;28;19920;-61
2023/04/13 03:33:14;;;;;;;;;;;;;;;;;;5075039;28;19920;-61
2023/04/13 03:35:40;;;;;;;;;;;;;;;;;;5071565;28;19936;-61
2023/04/13 03:38:06;;;;;;;;;;;;;;;;;;5045305;28;19924;-61
2023/04/13 03:40:32;;;;;;;;;;;;;;;;;;5083555;28;20281;-60
2023/04/13 03:42:58;;;;;;;;;;;;;;;;;;5054125;28;19923;-60
2023/04/13 03:45:24;;;;;;;;;;;;;;;;;;5079214;28;19928;-60
2023/04/13 03:47:50;;;;;;;;;;;;;;;;;;5077218;28;20401;-61
2023/04/13 03:50:16;;;;;;;;;;;;;;;;;;5085085;28;19920;-61
2023/04/13 03:52:42;;;;;;;;;;;;;;;;;;5061618;28;19927;-61
2023/04/13 03:55:08;;;;;;;;;;;;;;;;;;5090899;28;19981;-61
2023/04/13 03:57:34;;;;;;;;;;;;;;;;;;5089713;28;20353;-61
2023/04/13 04:00:00;;;;;;;;;;;;;;;;;;5081087;28;19950;-60
2023/04/13 04:02:26;;;;;;;;;;;;;;;;;;5055222;28;19924;-61
2023/04/13 04:04:52;;;;;;;;;;;;;;;;;;5076164;28;19981;-61
2023/04/13 04:07:21;;;;;;;;;;;;;;;;;;5079105;28;20357;-60
2023/04/13 04:09:47;;;;;;;;;;;;;;;;;;5057473;28;20416;-60
2023/04/13 04:12:14;;;;;;;;;;;;;;;;;;5076812;28;19921;-60
2023/04/13 04:14:40;;;;;;;;;;;;;;;;;;5077158;28;19924;-60
2023/04/13 04:17:06;;;;;;;;;;;;;;;;;;5080289;28;19924;-60
2023/04/13 04:19:32;;;;;;;;;;;;;;;;;;5080815;28;20316;-60
2023/04/13 04:22:02;;;;;;;;;;;;;;;;;;5072349;28;19924;-61
2023/04/13 04:24:28;;;;;;;;;;;;;;;;;;5078968;28;19966;-61
2023/04/13 04:26:54;;;;;;;;;;;;;;;;;;5075546;28;19963;-61
2023/04/13 04:29:33;;;;;;;;;;;;;;;;;;5053327;28;20043;-62
2023/04/13 04:31:58;;;;;;;;;;;;;;;;;;5074186;28;20394;-61
2023/04/13 04:34:24;;;;;;;;;;;;;;;;;;5070409;28;19920;-61
2023/04/13 04:36:51;;;;;;;;;;;;;;;;;;5071574;28;19924;-61
2023/04/13 04:39:21;;;;;;;;;;;;;;;;;;5078301;28;20331;-61
2023/04/13 04:41:47;;;;;;;;;;;;;;;;;;5076335;28;19921;-62
2023/04/13 04:44:15;;;;;;;;;;;;;;;;;;5085415;28;19924;-61
2023/04/13 04:46:42;;;;;;;;;;;;;;;;;;5081518;28;19928;-61
2023/04/13 04:49:08;;;;;;;;;;;;;;;;;;5071413;28;20393;-61
2023/04/13 04:51:34;;;;;;;;;;;;;;;;;;5074216;28;19921;-61
2023/04/13 04:54:02;;;;;;;;;;;;;;;;;;5076926;28;19974;-62
2023/04/13 04:56:28;;;;;;;;;;;;;;;;;;5074404;28;19932;-61
2023/04/13 04:58:54;;;;;;;;;;;;;;;;;;5081877;28;19920;-62
2023/04/13 05:01:25;;;;;;;;;;;;;;;;;;5084556;28;20426;-61
2023/04/13 05:03:51;;;;;;;;;;;;;;;;;;5073836;22;22785;-61
2023/04/13 05:06:17;;;;;;;;;;;;;;;;;;5045756;28;19932;-61
2023/04/13 05:08:43;;;;;;;;;;;;;;;;;;5048635;28;19925;-61
2023/04/13 05:11:09;;;;;;;;;;;;;;;;;;5048401;28;20008;-60
2023/04/13 05:13:35;;;;;;;;;;;;;;;;;;5050528;28;20000;-61
2023/04/13 05:16:04;;;;;;;;;;;;;;;;;;5050237;28;19939;-61
2023/04/13 05:18:30;;;;;;;;;;;;;;;;;;5042784;28;19929;-61
2023/04/13 05:20:56;;;;;;;;;;;;;;;;;;5048836;28;19921;-61
2023/04/13 05:23:22;;;;;;;;;;;;;;;;;;5048299;28;19994;-61
2023/04/13 05:25:48;;;;;;;;;;;;;;;;;;5054849;28;20012;-61
2023/04/13 05:28:14;;;;;;;;;;;;;;;;;;5049851;28;19922;-61
2023/04/13 05:30:40;;;;;;;;;;;;;;;;;;5048688;28;19928;-61
2023/04/13 05:33:08;;;;;;;;;;;;;;;;;;5032933;28;19975;-61
2023/04/13 05:35:36;;;;;;;;;;;;;;;;;;5048855;28;20273;-61
2023/04/13 05:38:03;;;;;;;;;;;;;;;;;;5031385;28;19995;-61
2023/04/13 05:40:29;;;;;;;;;;;;;;;;;;5047794;28;19920;-61
2023/04/13 05:42:55;;;;;;;;;;;;;;;;;;5050451;28;19935;-61
2023/04/13 05:45:21;;;;;;;;;;;;;;;;;;5048578;28;19979;-61
2023/04/13 05:47:47;;;;;;;;;;;;;;;;;;5048556;28;19987;-61
2023/04/13 05:50:13;;;;;;;;;;;;;;;;;;5052366;28;19921;-61
2023/04/13 05:52:39;;;;;;;;;;;;;;;;;;5054635;28;19929;-61
2023/04/13 05:55:05;;;;;;;;;;;;;;;;;;5036729;28;19925;-61
2023/04/13 05:57:31;;;;;;;;;;;;;;;;;;5052373;28;20426;-61
2023/04/13 05:59:57;;;;;;;;;;;;;;;;;;5054399;28;19929;-61
2023/04/13 06:02:25;;;;;;;;;;;;;;;;;;5051160;28;19931;-61
2023/04/13 06:04:53;;;;;;;;;;;;;;;;;;5053287;28;20424;-61
2023/04/13 06:07:19;;;;;;;;;;;;;;;;;;5053821;28;19944;-62
2023/04/13 06:09:45;;;;;;;;;;;;;;;;;;5054621;28;20274;-61
2023/04/13 06:12:11;;;;;;;;;;;;;;;;;;5053027;28;19971;-62
2023/04/13 06:14:37;;;;;;;;;;;;;;;;;;5053006;28;20019;-61
2023/04/13 06:17:03;;;;;;;;;;;;;;;;;;5035957;28;20015;-61
2023/04/13 06:19:29;;;;;;;;;;;;;;;;;;5034441;28;19924;-62
2023/04/13 06:21:55;;;;;;;;;;;;;;;;;;5036117;28;20314;-61
2023/04/13 06:24:21;;;;;;;;;;;;;;;;;;5035532;28;19936;-61
2023/04/13 06:26:47;;;;;;;;;;;;;;;;;;5051947;28;19935;-61
2023/04/13 06:29:13;;;;;;;;;;;;;;;;;;5054145;28;19920;-61
2023/04/13 06:31:39;;;;;;;;;;;;;;;;;;5053620;28;19967;-61
2023/04/13 06:34:06;;;;;;;;;;;;;;;;;;5052300;28;19924;-61
2023/04/13 06:36:32;;;;;;;;;;;;;;;;;;5035728;28;19925;-61
2023/04/13 06:38:58;;;;;;;;;;;;;;;;;;5035922;28;20418;-61
2023/04/13 06:41:23;;;;;;;;;;;;;;;;;;5034144;28;19928;-61
2023/04/13 06:43:49;;;;;;;;;;;;;;;;;;5053950;28;19925;-61
2023/04/13 06:46:15;;;;;;;;;;;;;;;;;;5051966;28;19931;-60
2023/04/13 06:48:41;;;;;;;;;;;;;;;;;;5035176;28;19951;-61
2023/04/13 06:51:07;;;;;;;;;;;;;;;;;;5052817;28;20614;-61
2023/04/13 06:53:33;;;;;;;;;;;;;;;;;;5050613;28;19975;-61
2023/04/13 06:55:59;;;;;;;;;;;;;;;;;;5035491;28;19922;-61
2023/04/13 06:58:26;;;;;;;;;;;;;;;;;;5049828;28;19920;-61
2023/04/13 07:00:51;;;;;;;;;;;;;;;;;;5050705;28;19929;-61
2023/04/13 07:03:17;;;;;;;;;;;;;;;;;;5053549;28;19920;-61
2023/04/13 07:05:44;;;;;;;;;;;;;;;;;;5041227;28;19931;-61
2023/04/13 07:08:10;;;;;;;;;;;;;;;;;;5034729;28;20364;-61
2023/04/13 07:10:38;;;;;;;;;;;;;;;;;;5052115;28;19921;-61
2023/04/13 07:13:04;;;;;;;;;;;;;;;;;;5051986;28;19946;-61
2023/04/13 07:15:30;;;;;;;;;;;;;;;;;;5041296;28;19924;-61
2023/04/13 07:17:55;;;;;;;;;;;;;;;;;;5034246;28;19921;-61
2023/04/13 07:20:21;;;;;;;;;;;;;;;;;;5052112;28;19928;-61
2023/04/13 07:22:47;;;;;;;;;;;;;;;;;;5044490;28;20393;-61
2023/04/13 07:25:13;;;;;;;;;;;;;;;;;;5047115;28;19928;-61
2023/04/13 07:27:39;;;;;;;;;;;;;;;;;;5047266;28;20251;-61
2023/04/13 07:30:05;;;;;;;;;;;;;;;;;;5050778;28;19925;-62
2023/04/13 07:32:31;;;;;;;;;;;;;;;;;;5051864;28;19924;-61
2023/04/13 07:35:00;;;;;;;;;;;;;;;;;;5049952;28;19928;-61
2023/04/13 07:37:26;;;;;;;;;;;;;;;;;;5050627;28;20019;-61
2023/04/13 07:39:52;;;;;;;;;;;;;;;;;;5033134;28;19929;-61
2023/04/13 07:42:18;;;;;;;;;;;;;;;;;;5050943;28;19936;-62
2023/04/13 07:44:44;;;;;;;;;;;;;;;;;;5015086;28;19951;-61
2023/04/13 07:47:11;;;;;;;;;;;;;;;;;;5050400;28;20313;-61
2023/04/13 07:49:37;;;;;;;;;;;;;;;;;;5051026;28;19944;-61
2023/04/13 07:52:03;;;;;;;;;;;;;;;;;;5051439;28;19924;-61
2023/04/13 07:54:29;;;;;;;;;;;;;;;;;;5049888;28;20454;-61
2023/04/13 07:56:57;;;;;;;;;;;;;;;;;;5051991;28;19921;-60
2023/04/13 07:59:23;;;;;;;;;;;;;;;;;;5048848;28;20390;-60
2023/04/13 08:01:48;;;;;;;;;;;;;;;;;;5048877;28;19956;-60
2023/04/13 08:04:14;;;;;;;;;;;;;;;;;;5046703;28;20039;-61
2023/04/13 08:06:40;;;;;;;;;;;;;;;;;;5031329;28;19929;-61
2023/04/13 08:09:07;;;;;;;;;;;;;;;;;;5049900;28;20012;-60
2023/04/13 08:11:32;;;;;;;;;;;;;;;;;;5049949;28;19944;-60
2023/04/13 08:13:58;;;;;;;;;;;;;;;;;;5048650;28;20374;-60
2023/04/13 08:16:24;;;;;;;;;;;;;;;;;;5049993;28;19925;-60
2023/04/13 08:18:50;;;;;;;;;;;;;;;;;;5050104;28;19998;-60
2023/04/13 08:21:17;;;;;;;;;;;;;;;;;;5051795;28;19943;-60
2023/04/13 08:23:43;;;;;;;;;;;;;;;;;;5050862;28;19925;-60
2023/04/13 08:26:09;;;;;;;;;;;;;;;;;;5032301;28;20588;-60
2023/04/13 08:28:35;;;;;;;;;;;;;;;;;;5029351;28;19925;-61
2023/04/13 08:31:01;;;;;;;;;;;;;;;;;;5062716;28;19936;-61
2023/04/13 08:33:27;;;;;;;;;;;;;;;;;;5050893;28;20314;-61
2023/04/13 08:35:53;;;;;;;;;;;;;;;;;;5051848;28;19928;-60
2023/04/13 08:38:19;;;;;;;;;;;;;;;;;;5050898;28;20088;-61
2023/04/13 08:40:45;;;;;;;;;;;;;;;;;;5050729;28;19964;-61
2023/04/13 08:43:12;;;;;;;;;;;;;;;;;;5050780;28;20366;-61
2023/04/13 08:45:37;;;;;;;;;;;;;;;;;;5031851;28;19978;-61
2023/04/13 08:48:04;;;;;;;;;;;;;;;;;;5051183;28;20308;-60
2023/04/13 08:50:29;;;;;;;;;;;;;;;;;;5048312;28;19932;-60
2023/04/13 08:52:55;;;;;;;;;;;;;;;;;;5048799;28;19921;-61
2023/04/13 08:55:21;;;;;;;;;;;;;;;;;;5049786;28;20722;-60
2023/04/13 08:57:47;;;;;;;;;;;;;;;;;;5041028;28;19924;-61
2023/04/13 09:00:16;;;;;;;;;;;;;;;;;;5047259;28;19920;-61
2023/04/13 09:02:47;;;;;;;;;;;;;;;;;;5047813;28;19952;-61
2023/04/13 09:05:14;;;;;;;;;;;;;;;;;;5045839;28;19929;-61
2023/04/13 09:07:40;;;;;;;;;;;;;;;;;;5051596;28;20404;-61
2023/04/13 09:10:06;;;;;;;;;;;;;;;;;;5048965;28;19964;-61
2023/04/13 09:12:33;;;;;;;;;;;;;;;;;;5049206;28;19921;-61
2023/04/13 09:14:59;;;;;;;;;;;;;;;;;;5049415;28;20019;-61
2023/04/13 09:17:25;;;;;;;;;;;;;;;;;;5034139;28;20382;-61
2023/04/13 09:19:51;;;;;;;;;;;;;;;;;;5044519;28;19982;-61
2023/04/13 09:22:17;;;;;;;;;;;;;;;;;;5048325;28;20007;-61
2023/04/13 09:24:43;;;;;;;;;;;;;;;;;;5050353;28;20043;-61
2023/04/13 09:27:08;;;;;;;;;;;;;;;;;;5054068;28;19924;-61
2023/04/13 09:29:35;;;;;;;;;;;;;;;;;;5050050;28;20456;-61
2023/04/13 09:32:01;;;;;;;;;;;;;;;;;;5054422;28;19960;-61
2023/04/13 09:34:27;;;;;;;;;;;;;;;;;;5052910;28;19931;-61
2023/04/13 09:36:53;;;;;;;;;;;;;;;;;;5053583;28;19924;-61
2023/04/13 09:39:19;;;;;;;;;;;;;;;;;;5055148;28;19975;-62
2023/04/13 09:41:48;;;;;;;;;;;;;;;;;;5053778;28;19921;-61
2023/04/13 09:44:15;;;;;;;;;;;;;;;;;;5054302;28;20015;-62
2023/04/13 09:46:40;;;;;;;;;;;;;;;;;;5051703;28;20011;-62
2023/04/13 09:49:06;;;;;;;;;;;;;;;;;;5035442;28;19921;-62
2023/04/13 09:51:32;;;;;;;;;;;;;;;;;;5050608;28;19920;-62
2023/04/13 09:53:58;;;;;;;;;;;;;;;;;;5052077;28;19982;-62
2023/04/13 09:56:26;;;;;;;;;;;;;;;;;;5052514;28;19978;-62
2023/04/13 09:58:53;;;;;;;;;;;;;;;;;;5037378;28;19979;-61
2023/04/13 10:01:19;;;;;;;;;;;;;;;;;;5051641;28;20325;-62
2023/04/13 10:03:45;;;;;;;;;;;;;;;;;;5051733;28;20317;-62
2023/04/13 10:06:12;;;;;;;;;;;;;;;;;;5034862;28;19982;-62
2023/04/13 10:08:38;;;;;;;;;;;;;;;;;;5053817;28;19920;-62
2023/04/13 10:11:04;;;;;;;;;;;;;;;;;;5034920;28;19939;-62
2023/04/13 10:13:30;;;;;;;;;;;;;;;;;;5053586;28;19925;-61
2023/04/13 10:15:56;;;;;;;;;;;;;;;;;;5052622;28;19928;-61
2023/04/13 10:18:21;;;;;;;;;;;;;;;;;;5055145;28;20422;-62
2023/04/13 10:20:47;;;;;;;;;;;;;;;;;;5037010;28;19924;-61
2023/04/13 10:23:13;;;;;;;;;;;;;;;;;;5053038;28;20368;-62
2023/04/13 10:25:40;;;;;;;;;;;;;;;;;;5051029;28;19925;-62
2023/04/13 10:28:06;;;;;;;;;;;;;;;;;;5053048;28;19921;-62
2023/04/13 10:30:32;;;;;;;;;;;;;;;;;;5051674;28;19924;-62
2023/04/13 10:32:58;;;;;;;;;;;;;;;;;;5052401;28;19921;-61
2023/04/13 10:35:24;;;;;;;;;;;;;;;;;;5053801;28;20027;-63
2023/04/13 10:37:50;;;;;;;;;;;;;;;;;;5053934;28;19920;-62
2023/04/13 10:40:16;;;;;;;;;;;;;;;;;;5048905;28;19927;-62
2023/04/13 10:42:43;;;;;;;;;;;;;;;;;;5032619;28;19921;-62
2023/04/13 10:45:09;;;;;;;;;;;;;;;;;;5050879;28;19940;-61
2023/04/13 10:47:38;;;;;;;;;;;;;;;;;;5035438;28;20369;-61
2023/04/13 10:50:04;;;;;;;;;;;;;;;;;;5053910;28;19921;-61
2023/04/13 10:52:30;;;;;;;;;;;;;;;;;;5052242;28;19931;-61
2023/04/13 10:54:56;;;;;;;;;;;;;;;;;;5054155;28;19929;-61
2023/04/13 10:57:22;;;;;;;;;;;;;;;;;;5050939;28;19921;-61
2023/04/13 10:59:50;;;;;;;;;;;;;;;;;;5051028;28;19969;-62
2023/04/13 11:02:16;;;;;;;;;;;;;;;;;;5037346;28;19921;-62
2023/04/13 11:04:42;;;;;;;;;;;;;;;;;;5067439;22;19928;-61
2023/04/13 11:07:08;;;;;;;;;;;;;;;;;;5072834;28;19950;-61
2023/04/13 11:09:33;;;;;;;;;;;;;;;;;;5067308;28;19920;-61
2023/04/13 11:11:59;;;;;;;;;;;;;;;;;;5062889;28;19987;-61
2023/04/13 11:14:25;;;;;;;;;;;;;;;;;;5071963;28;19924;-61
2023/04/13 11:16:51;;;;;;;;;;;;;;;;;;5070927;28;20019;-60
2023/04/13 11:19:17;;;;;;;;;;;;;;;;;;5066653;28;19921;-60
2023/04/13 11:21:43;;;;;;;;;;;;;;;;;;5070817;28;20403;-61
2023/04/13 11:24:09;;;;;;;;;;;;;;;;;;5055995;28;19925;-61
2023/04/13 11:26:36;;;;;;;;;;;;;;;;;;5051260;28;20417;-60
2023/04/13 11:29:02;;;;;;;;;;;;;;;;;;5065345;28;19972;-61
2023/04/13 11:31:28;;;;;;;;;;;;;;;;;;5067908;28;19979;-61
2023/04/13 11:33:54;;;;;;;;;;;;;;;;;;5072554;28;20365;-61
2023/04/13 11:36:22;;;;;;;;;;;;;;;;;;5070169;28;21289;-61
2023/04/13 11:38:48;;;;;;;;;;;;;;;;;;5066945;28;19920;-60
2023/04/13 11:41:15;;;;;;;;;;;;;;;;;;5071272;28;19932;-60
2023/04/13 11:43:41;;;;;;;;;;;;;;;;;;5071691;28;20012;-60
2023/04/13 11:46:07;;;;;;;;;;;;;;;;;;5068876;28;20015;-60
2023/04/13 11:48:33;;;;;;;;;;;;;;;;;;5072006;28;20255;-60
2023/04/13 11:50:59;;;;;;;;;;;;;;;;;;5061747;28;19928;-61
2023/04/13 11:53:25;;;;;;;;;;;;;;;;;;5061216;28;20388;-60
2023/04/13 11:55:51;;;;;;;;;;;;;;;;;;5071052;28;19969;-61
2023/04/13 11:58:17;;;;;;;;;;;;;;;;;;5055247;28;19920;-61
2023/04/13 12:00:44;;;;;;;;;;;;;;;;;;5067775;28;19978;-61
2023/04/13 12:03:10;;;;;;;;;;;;;;;;;;5071710;28;19981;-61
2023/04/13 12:05:36;;;;;;;;;;;;;;;;;;5069872;28;19926;-60
2023/04/13 12:08:02;;;;;;;;;;;;;;;;;;5072455;28;20548;-60
2023/04/13 12:10:28;;;;;;;;;;;;;;;;;;5072735;28;19959;-60
2023/04/13 12:12:54;;;;;;;;;;;;;;;;;;5072043;28;20427;-60
2023/04/13 12:15:20;;;;;;;;;;;;;;;;;;5072756;28;19965;-60
2023/04/13 12:17:46;;;;;;;;;;;;;;;;;;5072421;28;19920;-62
2023/04/13 12:20:11;;;;;;;;;;;;;;;;;;5072383;28;19924;-62
2023/04/13 12:22:38;;;;;;;;;;;;;;;;;;5071083;28;19920;-60
2023/04/13 12:25:03;;;;;;;;;;;;;;;;;;5072086;28;20385;-61
2023/04/13 12:27:29;;;;;;;;;;;;;;;;;;5070332;28;19928;-61
2023/04/13 12:29:55;;;;;;;;;;;;;;;;;;5070809;28;19924;-61
2023/04/13 12:32:22;;;;;;;;;;;;;;;;;;5065549;28;19950;-61
2023/04/13 12:34:48;;;;;;;;;;;;;;;;;;5066392;28;20421;-61
2023/04/13 12:37:13;;;;;;;;;;;;;;;;;;5072162;28;20047;-60
2023/04/13 12:39:40;;;;;;;;;;;;;;;;;;5058912;28;20449;-61
2023/04/13 12:42:06;;;;;;;;;;;;;;;;;;5072222;28;20000;-61
2023/04/13 12:44:32;;;;;;;;;;;;;;;;;;5064860;28;19936;-61
2023/04/13 12:46:58;;;;;;;;;;;;;;;;;;5068812;28;19925;-61
2023/04/13 12:49:24;;;;;;;;;;;;;;;;;;5071194;28;20320;-61
2023/04/13 12:51:50;;;;;;;;;;;;;;;;;;5070331;28;20007;-61
2023/04/13 12:54:16;;;;;;;;;;;;;;;;;;5070739;28;20031;-60
2023/04/13 12:56:42;;;;;;;;;;;;;;;;;;5069072;28;19931;-61
2023/04/13 12:59:08;;;;;;;;;;;;;;;;;;5074505;28;19920;-61
2023/04/13 13:01:37;;;;;;;;;;;;;;;;;;5073978;28;20431;-61
2023/04/13 13:04:03;;;;;;;;;;;;;;;;;;5070875;28;20441;-61
2023/04/13 13:06:29;;;;;;;;;;;;;;;;;;5067768;28;19932;-60
2023/04/13 13:08:55;;;;;;;;;;;;;;;;;;5069478;28;19975;-61
2023/04/13 13:11:21;;;;;;;;;;;;;;;;;;5069380;28;20373;-60
2023/04/13 13:13:47;;;;;;;;;;;;;;;;;;5046403;28;19928;-61
2023/04/13 13:16:13;;;;;;;;;;;;;;;;;;5071080;28;20360;-61
2023/04/13 13:18:39;;;;;;;;;;;;;;;;;;5070305;28;19983;-62
2023/04/13 13:21:05;;;;;;;;;;;;;;;;;;5071556;28;19932;-62
2023/04/13 13:23:31;;;;;;;;;;;;;;;;;;5073223;28;19956;-62
2023/04/13 13:25:57;;;;;;;;;;;;;;;;;;5040487;28;20408;-62
2023/04/13 13:28:22;;;;;;;;;;;;;;;;;;5038000;28;19929;-62
2023/04/13 13:30:48;;;;;;;;;;;;;;;;;;5065075;28;19924;-61
2023/04/13 13:33:14;;;;;;;;;;;;;;;;;;5069311;28;19920;-62
2023/04/13 13:35:40;;;;;;;;;;;;;;;;;;5073170;28;19920;-61
2023/04/13 13:38:06;;;;;;;;;;;;;;;;;;5074008;28;20674;-61
2023/04/13 13:40:32;;;;;;;;;;;;;;;;;;5057320;28;19967;-61
2023/04/13 13:42:58;;;;;;;;;;;;;;;;;;5073893;28;19924;-61
2023/04/13 13:45:24;;;;;;;;;;;;;;;;;;5070696;28;19940;-61
2023/04/13 13:47:50;;;;;;;;;;;;;;;;;;5074142;28;20521;-61
2023/04/13 13:50:17;;;;;;;;;;;;;;;;;;5069990;28;20034;-61
2023/04/13 13:52:42;;;;;;;;;;;;;;;;;;5069420;28;19929;-61
2023/04/13 13:55:08;;;;;;;;;;;;;;;;;;5071619;28;19921;-62
2023/04/13 13:57:34;;;;;;;;;;;;;;;;;;5071882;28;20297;-62
2023/04/13 14:00:00;;;;;;;;;;;;;;;;;;5068023;28;20349;-62
2023/04/13 14:02:26;;;;;;;;;;;;;;;;;;5063145;28;19921;-61
2023/04/13 14:04:52;;;;;;;;;;;;;;;;;;5073158;28;19939;-61
2023/04/13 14:07:18;;;;;;;;;;;;;;;;;;5071410;28;19933;-61
2023/04/13 14:09:44;;;;;;;;;;;;;;;;;;5072371;28;20518;-61
2023/04/13 14:12:11;;;;;;;;;;;;;;;;;;5067182;28;19920;-61
2023/04/13 14:14:37;;;;;;;;;;;;;;;;;;5073851;28;19927;-61
2023/04/13 14:17:02;;;;;;;;;;;;;;;;;;5037669;28;19925;-61
2023/04/13 14:19:28;;;;;;;;;;;;;;;;;;5069519;28;20297;-62
2023/04/13 14:21:55;;;;;;;;;;;;;;;;;;5064421;28;19927;-62
2023/04/13 14:24:21;;;;;;;;;;;;;;;;;;5069465;28;19936;-62
2023/04/13 14:26:47;;;;;;;;;;;;;;;;;;5067776;28;19934;-62
2023/04/13 14:29:13;;;;;;;;;;;;;;;;;;5052594;28;20290;-61
2023/04/13 14:31:39;;;;;;;;;;;;;;;;;;5069256;28;20297;-61
2023/04/13 14:34:06;;;;;;;;;;;;;;;;;;5069580;28;20073;-62
2023/04/13 14:36:31;;;;;;;;;;;;;;;;;;5053230;28;19928;-61
2023/04/13 14:38:59;;;;;;;;;;;;;;;;;;5049384;28;19939;-62
2023/04/13 14:41:25;;;;;;;;;;;;;;;;;;5070849;28;19928;-62
2023/04/13 14:43:51;;;;;;;;;;;;;;;;;;5069016;28;20002;-62
2023/04/13 14:46:17;;;;;;;;;;;;;;;;;;5071891;28;20015;-61
2023/04/13 14:48:43;;;;;;;;;;;;;;;;;;5062578;28;19928;-61
2023/04/13 14:51:08;;;;;;;;;;;;;;;;;;5054450;28;19925;-62
2023/04/13 14:53:34;;;;;;;;;;;;;;;;;;5051441;28;20024;-61
2023/04/13 14:56:00;;;;;;;;;;;;;;;;;;5066536;28;19921;-62
2023/04/13 14:58:26;;;;;;;;;;;;;;;;;;5071377;28;19956;-62
2023/04/13 15:00:52;;;;;;;;;;;;;;;;;;5070387;28;20351;-62
2023/04/13 15:03:18;;;;;;;;;;;;;;;;;;5068492;28;19951;-62
2023/04/13 15:05:48;;;;;;;;;;;;;;;;;;5047316;28;19929;-62
2023/04/13 15:08:15;;;;;;;;;;;;;;;;;;5051474;28;20003;-62
2023/04/13 15:10:41;;;;;;;;;;;;;;;;;;5061535;28;19921;-61
2023/04/13 15:13:07;;;;;;;;;;;;;;;;;;5065149;28;19963;-62
2023/04/13 15:15:33;;;;;;;;;;;;;;;;;;5067790;28;20006;-62
2023/04/13 15:17:59;;;;;;;;;;;;;;;;;;5064129;28;20065;-62
2023/04/13 15:20:25;;;;;;;;;;;;;;;;;;5070990;28;19927;-62
2023/04/13 15:22:51;;;;;;;;;;;;;;;;;;5072416;28;20021;-62
2023/04/13 15:25:17;;;;;;;;;;;;;;;;;;5073031;28;19972;-62
2023/04/13 15:27:43;;;;;;;;;;;;;;;;;;5072032;28;20020;-62
2023/04/13 15:30:09;;;;;;;;;;;;;;;;;;5073235;28;20342;-62
2023/04/13 15:32:35;;;;;;;;;;;;;;;;;;5073384;28;19920;-62
2023/04/13 15:35:01;;;;;;;;;;;;;;;;;;5060896;28;20254;-62
2023/04/13 15:37:27;;;;;;;;;;;;;;;;;;5070660;28;19927;-62
2023/04/13 15:39:53;;;;;;;;;;;;;;;;;;5072803;28;19924;-62
2023/04/13 15:42:20;;;;;;;;;;;;;;;;;;5072580;28;20312;-62
2023/04/13 15:44:45;;;;;;;;;;;;;;;;;;5072919;28;19974;-62
2023/04/13 15:47:11;;;;;;;;;;;;;;;;;;5073075;28;19932;-62
2023/04/13 15:49:37;;;;;;;;;;;;;;;;;;5072960;28;20400;-62
2023/04/13 15:52:03;;;;;;;;;;;;;;;;;;5054207;28;19921;-62
2023/04/13 15:54:29;;;;;;;;;;;;;;;;;;5071541;28;19928;-62
2023/04/13 15:56:55;;;;;;;;;;;;;;;;;;5054604;28;19955;-62
2023/04/13 15:59:21;;;;;;;;;;;;;;;;;;5072856;28;19925;-62
2023/04/13 16:01:47;;;;;;;;;;;;;;;;;;5072631;28;19920;-62
2023/04/13 16:04:13;;;;;;;;;;;;;;;;;;5072437;28;20593;-62
2023/04/13 16:06:39;;;;;;;;;;;;;;;;;;5072687;28;19928;-62
2023/04/13 16:09:05;;;;;;;;;;;;;;;;;;5071146;28;20298;-62
2023/04/13 16:11:31;;;;;;;;;;;;;;;;;;5072434;28;19920;-62
2023/04/13 16:13:57;;;;;;;;;;;;;;;;;;5053052;28;19920;-62
2023/04/13 16:16:23;;;;;;;;;;;;;;;;;;5072637;28;20041;-62
2023/04/13 16:18:49;;;;;;;;;;;;;;;;;;5072847;28;20008;-62
2023/04/13 16:21:18;;;;;;;;;;;;;;;;;;5071932;28;19920;-62
2023/04/13 16:23:44;;;;;;;;;;;;;;;;;;5071855;28;19928;-62
2023/04/13 16:26:11;;;;;;;;;;;;;;;;;;5070346;28;19931;-62
2023/04/13 16:28:37;;;;;;;;;;;;;;;;;;5052625;28;19973;-62
2023/04/13 16:31:02;;;;;;;;;;;;;;;;;;5070628;28;19932;-62
2023/04/13 16:33:28;;;;;;;;;;;;;;;;;;5070601;28;20358;-62
2023/04/13 16:35:54;;;;;;;;;;;;;;;;;;5069180;28;19920;-62
2023/04/13 16:38:20;;;;;;;;;;;;;;;;;;5071122;28;19963;-62